createdAt,value
2019-01-26T00:02:52.211Z,2.50
2019-01-26T00:07:57.785Z,2.50
2019-01-26T00:13:05.834Z,2.50
2019-01-26T00:18:10.819Z,2.50
2019-01-26T00:23:16.016Z,2.50
2019-01-26T00:28:21.028Z,2.50
2019-01-26T00:33:26.550Z,2.60
2019-01-26T00:38:32.310Z,2.70
2019-01-26T00:43:37.563Z,2.70
2019-01-26T00:48:44.152Z,2.70
2019-01-26T00:53:49.169Z,2.70
2019-01-26T00:58:54.174Z,2.70
2019-01-26T01:03:59.134Z,2.70
2019-01-26T01:09:06.121Z,2.80
2019-01-26T01:14:12.990Z,2.80
2019-01-26T01:19:17.984Z,2.60
2019-01-26T01:24:22.966Z,2.60
2019-01-26T01:29:27.947Z,2.60
2019-01-26T01:34:32.966Z,2.60
2019-01-26T01:39:38.287Z,2.70
2019-01-26T01:44:43.260Z,2.60
2019-01-26T01:49:48.272Z,2.70
2019-01-26T01:54:53.275Z,2.70
2019-01-26T01:59:58.259Z,2.80
2019-01-26T02:05:03.243Z,2.80
2019-01-26T02:10:10.718Z,2.80
2019-01-26T02:15:16.052Z,2.90
2019-01-26T02:20:23.143Z,3.00
2019-01-26T02:25:28.142Z,3.20
2019-01-26T02:30:33.172Z,3.20
2019-01-26T02:35:38.177Z,3.30
2019-01-26T02:40:43.195Z,3.30
2019-01-26T02:45:48.184Z,3.30
2019-01-26T02:50:53.209Z,3.20
2019-01-26T02:55:58.196Z,3.20
2019-01-26T03:01:03.207Z,3.30
2019-01-26T03:06:08.224Z,3.30
2019-01-26T03:11:13.194Z,3.30
2019-01-26T03:16:18.258Z,3.30
2019-01-26T03:21:23.260Z,3.30
2019-01-26T03:26:28.358Z,3.30
2019-01-26T03:31:34.747Z,3.30
2019-01-26T03:36:39.687Z,3.20
2019-01-26T03:41:44.675Z,3.20
2019-01-26T03:46:49.673Z,3.10
2019-01-26T03:51:54.675Z,3.20
2019-01-26T03:56:59.655Z,3.30
2019-01-26T04:02:04.655Z,3.60
2019-01-26T04:07:09.649Z,3.80
2019-01-26T04:12:14.639Z,3.90
2019-01-26T04:17:21.925Z,4.10
2019-01-26T04:22:26.396Z,4.20
2019-01-26T04:27:31.399Z,4.30
2019-01-26T04:32:36.421Z,4.30
2019-01-26T04:37:41.461Z,4.40
2019-01-26T04:42:48.306Z,4.40
2019-01-26T04:47:53.280Z,4.50
2019-01-26T04:52:58.274Z,4.60
2019-01-26T04:58:05.437Z,4.70
2019-01-26T05:03:11.537Z,4.70
2019-01-26T05:08:16.535Z,4.80
2019-01-26T05:13:21.561Z,4.80
2019-01-26T05:18:26.736Z,4.90
2019-01-26T05:23:31.722Z,4.90
2019-01-26T05:28:36.774Z,4.90
2019-01-26T05:38:52.348Z,4.90
2019-01-26T05:43:57.346Z,4.90
2019-01-26T05:49:02.324Z,5.00
2019-01-26T05:54:07.296Z,5.00
2019-01-26T05:59:12.282Z,4.90
2019-01-26T06:04:17.409Z,4.90
2019-01-26T06:09:22.403Z,5.00
2019-01-26T06:14:27.422Z,5.10
2019-01-26T06:19:32.430Z,5.40
2019-01-26T06:24:37.438Z,5.60
2019-01-26T06:29:43.600Z,5.60
2019-01-26T06:34:48.620Z,5.60
2019-01-26T06:39:53.642Z,5.70
2019-01-26T06:44:58.686Z,5.70
2019-01-26T06:50:04.055Z,5.70
2019-01-26T06:55:10.574Z,5.70
2019-01-26T07:00:18.039Z,5.80
2019-01-26T07:05:30.547Z,5.80
2019-01-26T07:10:36.631Z,5.80
2019-01-26T07:15:42.955Z,5.80
2019-01-26T07:20:47.939Z,5.90
2019-01-26T07:25:53.350Z,5.90
2019-01-26T07:30:58.344Z,5.90
2019-01-26T07:36:03.356Z,5.90
2019-01-26T07:41:08.409Z,6.00
2019-01-26T07:46:13.405Z,6.00
2019-01-26T07:51:18.436Z,6.00
2019-01-26T07:56:23.438Z,6.00
2019-01-26T08:01:28.455Z,6.00
2019-01-26T08:06:33.448Z,6.00
2019-01-26T08:11:38.426Z,6.00
2019-01-26T08:16:43.443Z,6.10
2019-01-26T08:21:48.849Z,6.10
2019-01-26T08:26:53.839Z,6.10
2019-01-26T08:31:58.828Z,6.10
2019-01-26T08:37:03.864Z,6.20
2019-01-26T08:42:08.840Z,6.20
2019-01-26T08:47:13.851Z,6.20
2019-01-26T08:52:18.871Z,6.20
2019-01-26T08:57:23.943Z,6.20
2019-01-26T09:02:46.757Z,6.20
2019-01-26T09:07:51.742Z,6.30
2019-01-26T09:12:56.739Z,6.30
2019-01-26T09:18:01.790Z,6.30
2019-01-26T09:23:07.094Z,6.30
2019-01-26T09:28:12.288Z,6.30
2019-01-26T09:33:17.322Z,6.40
2019-01-26T09:38:22.351Z,6.40
2019-01-26T09:43:27.360Z,6.40
2019-01-26T09:48:32.369Z,6.40
2019-01-26T09:53:37.395Z,6.40
2019-01-26T09:58:42.687Z,6.40
2019-01-26T10:03:47.680Z,6.50
2019-01-26T10:08:52.752Z,6.50
2019-01-26T10:13:57.746Z,6.50
2019-01-26T10:19:02.808Z,6.50
2019-01-26T10:24:08.309Z,6.60
2019-01-26T10:29:13.494Z,6.60
2019-01-26T10:34:18.479Z,6.60
2019-01-26T10:39:23.467Z,6.60
2019-01-26T10:44:30.274Z,6.60
2019-01-26T10:49:35.271Z,6.70
2019-01-26T10:54:40.392Z,6.60
2019-01-26T10:59:45.660Z,6.70
2019-01-26T11:04:50.654Z,6.70
2019-01-26T11:09:55.830Z,6.70
2019-01-26T11:15:01.041Z,6.60
2019-01-26T11:20:07.296Z,6.60
2019-01-26T11:25:12.486Z,6.60
2019-01-26T11:30:18.553Z,6.60
2019-01-26T11:35:23.583Z,6.60
2019-01-26T11:40:28.582Z,6.60
2019-01-26T11:46:07.872Z,6.60
2019-01-26T11:51:23.643Z,6.60
2019-01-26T11:56:39.538Z,6.60
2019-01-26T12:01:54.613Z,6.60
2019-01-26T12:07:05.045Z,6.60
2019-01-26T12:12:11.180Z,6.60
2019-01-26T12:17:16.190Z,6.60
2019-01-26T12:22:21.241Z,6.50
2019-01-26T12:27:26.238Z,6.50
2019-01-26T12:32:32.536Z,6.60
2019-01-26T12:37:37.621Z,6.60
2019-01-26T12:42:45.191Z,6.60
2019-01-26T12:47:50.101Z,6.60
2019-01-26T12:52:55.093Z,6.60
2019-01-26T12:58:00.091Z,6.60
2019-01-26T13:03:06.014Z,6.60
2019-01-26T13:08:11.061Z,6.50
2019-01-26T13:13:16.059Z,6.40
2019-01-26T13:18:21.109Z,6.40
2019-01-26T13:23:26.094Z,6.40
2019-01-26T13:28:31.126Z,6.40
2019-01-26T13:33:36.119Z,6.30
2019-01-26T13:38:41.253Z,6.30
2019-01-26T13:43:46.454Z,6.30
2019-01-26T13:48:51.435Z,6.30
2019-01-26T13:53:56.425Z,6.30
2019-01-26T13:59:01.410Z,6.30
2019-01-26T14:04:06.476Z,6.30
2019-01-26T14:09:13.550Z,6.30
2019-01-26T14:14:18.550Z,6.20
2019-01-26T14:19:23.538Z,6.20
2019-01-26T14:24:28.651Z,6.30
2019-01-26T14:29:33.633Z,6.30
2019-01-26T14:34:38.655Z,6.20
2019-01-26T14:39:43.631Z,6.20
2019-01-26T14:44:48.613Z,6.20
2019-01-26T14:49:58.411Z,6.30
2019-01-26T14:55:00.270Z,6.20
2019-01-26T15:00:08.184Z,6.20
2019-01-26T15:05:13.172Z,6.20
2019-01-26T15:10:18.477Z,6.20
2019-01-26T15:15:23.466Z,6.20
2019-01-26T15:20:31.247Z,6.20
2019-01-26T15:25:36.687Z,6.10
2019-01-26T15:30:43.632Z,6.10
2019-01-26T15:35:48.636Z,6.10
2019-01-26T15:40:53.702Z,6.10
2019-01-26T15:45:58.701Z,6.10
2019-01-26T15:51:03.751Z,6.10
2019-01-26T15:56:08.758Z,6.00
2019-01-26T16:01:13.817Z,6.00
2019-01-26T16:06:18.793Z,6.00
2019-01-26T16:11:23.791Z,6.00
2019-01-26T16:16:28.821Z,5.90
2019-01-26T16:21:33.852Z,5.80
2019-01-26T16:26:38.865Z,5.80
2019-01-26T16:32:03.008Z,5.70
2019-01-26T16:37:08.025Z,5.70
2019-01-26T16:42:13.121Z,5.70
2019-01-26T16:47:18.113Z,5.70
2019-01-26T16:52:23.149Z,5.60
2019-01-26T16:57:28.158Z,5.60
2019-01-26T17:02:33.168Z,5.60
2019-01-26T17:07:38.194Z,5.60
2019-01-26T17:12:45.014Z,5.60
2019-01-26T17:17:50.049Z,5.60
2019-01-26T17:22:56.286Z,5.60
2019-01-26T17:28:01.293Z,5.60
2019-01-26T17:33:07.979Z,5.60
2019-01-26T17:38:12.965Z,5.50
2019-01-26T17:43:17.970Z,5.40
2019-01-26T17:48:22.997Z,5.40
2019-01-26T17:53:28.016Z,5.30
2019-01-26T17:58:33.027Z,5.30
2019-01-26T18:03:38.040Z,5.20
2019-01-26T18:08:43.040Z,5.10
2019-01-26T18:13:48.059Z,5.10
2019-01-26T18:18:53.076Z,5.00
2019-01-26T18:23:58.148Z,5.00
2019-01-26T18:29:03.204Z,4.90
2019-01-26T18:34:08.188Z,4.90
2019-01-26T18:39:15.029Z,4.90
2019-01-26T18:44:20.036Z,4.80
2019-01-26T18:49:25.088Z,4.80
2019-01-26T18:54:30.114Z,4.70
2019-01-26T18:59:35.476Z,4.70
2019-01-26T19:04:47.579Z,4.70
2019-01-26T19:09:52.598Z,4.70
2019-01-26T19:14:57.609Z,4.60
2019-01-26T19:20:02.939Z,4.70
2019-01-26T19:25:10.477Z,4.70
2019-01-26T19:30:17.840Z,4.60
2019-01-26T19:35:22.877Z,4.60
2019-01-26T19:40:28.220Z,4.60
2019-01-26T19:45:33.335Z,4.70
2019-01-26T19:50:38.348Z,4.70
2019-01-26T19:55:43.389Z,4.70
2019-01-26T20:00:48.542Z,4.70
2019-01-26T20:05:53.613Z,4.70
2019-01-26T20:10:59.193Z,4.80
2019-01-26T20:16:04.335Z,4.80
2019-01-26T20:21:09.735Z,4.80
2019-01-26T20:26:14.761Z,4.80
2019-01-26T20:31:20.174Z,4.80
2019-01-26T20:36:25.198Z,4.90
2019-01-26T20:41:30.225Z,4.80
2019-01-26T20:46:35.254Z,4.80
2019-01-26T20:51:40.258Z,4.80
2019-01-26T20:56:45.270Z,4.90
2019-01-26T21:01:50.269Z,4.90
2019-01-26T21:06:55.296Z,4.90
2019-01-26T21:12:00.298Z,4.90
2019-01-26T21:17:05.320Z,4.90
2019-01-26T21:22:10.377Z,4.90
2019-01-26T21:27:15.414Z,5.00
2019-01-26T21:32:20.485Z,5.10
2019-01-26T21:37:25.507Z,5.10
2019-01-26T21:42:30.585Z,5.10
2019-01-26T21:47:35.598Z,5.20
2019-01-26T21:52:41.015Z,5.20
2019-01-26T21:57:46.446Z,5.20
2019-01-26T22:02:51.756Z,5.30
2019-01-26T22:07:56.788Z,5.30
2019-01-26T22:13:03.302Z,5.40
2019-01-26T22:18:08.404Z,5.40
2019-01-26T22:23:13.761Z,5.50
2019-01-26T22:28:18.770Z,5.50
2019-01-26T22:33:23.810Z,5.50
2019-01-26T22:38:28.897Z,5.50
2019-01-26T22:43:34.880Z,5.50
2019-01-26T22:48:39.823Z,5.50
2019-01-26T22:53:44.996Z,5.60
2019-01-26T22:58:50.009Z,5.60
2019-01-26T23:04:54.257Z,5.60
2019-01-26T23:10:45.198Z,5.60
2019-01-26T23:16:33.983Z,5.60
2019-01-26T23:22:05.539Z,5.70
2019-01-26T23:27:39.353Z,5.60
2019-01-26T23:32:44.404Z,5.70
2019-01-26T23:37:50.528Z,5.70
2019-01-26T23:42:55.582Z,5.70
2019-01-26T23:48:00.589Z,5.70
2019-01-26T23:53:05.831Z,5.80
2019-01-26T23:58:10.837Z,5.80
